YTN weather

Yucatan Airstrip
Mexicali, Baja California, Mexico

Public forecast

Using degrees Celsius for public forecast. Weather courtesy of forecast.io.

Closest aviation weather report (METAR) to Yucatan Airstrip

Closest report is General Rodolfo Sánchez Taboada International Airport, 8.1 nm (15.0 km) W. Retrieved 2020/04/09 18:46 UTC (39 minutes ago):

MMML 091846Z 00000KT 10SM SKC 18/01 A3014

Closest aviation forecast (TAF) to Yucatan Airstrip

Closest forecast is General Rodolfo Sánchez Taboada International Airport, 8.1 nm (15.0 km) W. Retrieved 2020/04/09 18:52 UTC (33 minutes ago):

TAF MMML 091645Z 0918/1018 15005KT P6SM SKC FM100000 34006KT P6SM BKN030 FM100900 36006KT 6SM HZ BKN030 BKN090 FM101800 15005KT 6SM HZ BKN015 OVC080 VC RA